Time;durP1;ratioP1;P1;durP2;ratioP2;P2;SDS_P1;SDS_P2;PMS_P1;PMS_P2;Temp;Humidity;BMP_temperature;BMP_pressure;BME280_temperature;BME280_humidity;BME280_pressure;Samples;Min_cycle;Max_cycle;Signal;HPM_P1;HPM_P2
2022/09/29 00:00:37;;;;;;;7.55;6.75;;;;;;;7.78;100.00;99329.63;4980694;28;20078;-80
2022/09/29 00:03:03;;;;;;;10.23;7.50;;;;;;;7.81;100.00;99326.69;4980832;28;20051;-82
2022/09/29 00:05:30;;;;;;;9.85;7.85;;;;;;;7.83;100.00;99329.94;4978682;28;20514;-81
2022/09/29 00:07:57;;;;;;;9.20;8.27;;;;;;;7.71;100.00;99320.84;4978186;28;20050;-79
2022/09/29 00:10:24;;;;;;;10.40;7.65;;;;;;;7.70;100.00;99322.66;4979452;28;20055;-80
2022/09/29 00:12:51;;;;;;;9.27;7.65;;;;;;;7.61;100.00;99319.25;4980754;28;20097;-80
2022/09/29 00:15:19;;;;;;;10.32;8.07;;;;;;;7.63;100.00;99317.31;4980500;28;20089;-80
2022/09/29 00:17:46;;;;;;;11.27;8.63;;;;;;;7.65;100.00;99330.16;4981515;28;20607;-80
2022/09/29 00:20:12;;;;;;;11.55;7.88;;;;;;;7.62;100.00;99331.31;4983852;28;20062;-79
2022/09/29 00:22:39;;;;;;;9.50;7.63;;;;;;;7.62;100.00;99330.50;4988221;28;20057;-80
2022/09/29 00:25:06;;;;;;;11.05;8.25;;;;;;;7.59;100.00;99323.81;4983689;28;20460;-79
2022/09/29 00:27:33;;;;;;;10.82;8.10;;;;;;;7.59;100.00;99321.22;4981356;28;20078;-79
2022/09/29 00:29:59;;;;;;;9.65;8.35;;;;;;;7.62;100.00;99315.69;4981259;28;20125;-80
2022/09/29 00:32:27;;;;;;;11.90;8.20;;;;;;;7.50;100.00;99316.25;4981442;28;20118;-79
2022/09/29 00:34:54;;;;;;;10.13;8.35;;;;;;;7.47;100.00;99325.19;4982185;28;20130;-79
2022/09/29 00:37:20;;;;;;;8.57;7.50;;;;;;;7.38;100.00;99322.78;4981299;28;20078;-79
2022/09/29 00:39:47;;;;;;;8.90;7.93;;;;;;;7.31;100.00;99323.44;4981335;28;20066;-82
2022/09/29 00:42:18;;;;;;;9.75;7.80;;;;;;;7.24;100.00;99312.06;4982914;28;20078;-81
2022/09/29 00:45:13;;;;;;;7.97;7.18;;;;;;;7.18;100.00;99317.13;4981068;28;20154;-82
2022/09/29 00:47:43;;;;;;;10.35;7.38;;;;;;;7.12;100.00;99316.00;4978174;28;20074;-82
2022/09/29 00:50:17;;;;;;;11.75;8.07;;;;;;;7.09;100.00;99315.53;4981661;28;20050;-82
2022/09/29 00:52:46;;;;;;;8.93;7.32;;;;;;;7.02;100.00;99323.19;4981524;28;20070;-83
2022/09/29 00:55:18;;;;;;;10.10;7.80;;;;;;;6.94;100.00;99316.22;4980117;28;20138;-82
2022/09/29 00:57:49;;;;;;;12.00;8.27;;;;;;;6.92;100.00;99327.75;4979510;28;20050;-82
2022/09/29 01:00:17;;;;;;;8.95;7.55;;;;;;;6.89;100.00;99333.28;4978014;28;20054;-82
2022/09/29 01:02:48;;;;;;;11.68;8.05;;;;;;;6.87;100.00;99325.63;4958439;28;20138;-82
2022/09/29 01:05:18;;;;;;;11.52;8.15;;;;;;;6.82;100.00;99333.13;4977133;28;20058;-82
2022/09/29 01:07:45;;;;;;;11.60;8.55;;;;;;;6.80;100.00;99336.84;4981696;28;20053;-83
2022/09/29 01:10:15;;;;;;;12.48;8.30;;;;;;;6.76;100.00;99327.75;4981369;28;20426;-84
2022/09/29 01:12:45;;;;;;;15.05;9.18;;;;;;;6.74;100.00;99330.50;4981560;28;20067;-82
2022/09/29 01:15:13;;;;;;;9.90;8.90;;;;;;;6.72;100.00;99326.44;4961995;28;20047;-82
2022/09/29 01:17:40;;;;;;;10.57;9.05;;;;;;;6.72;100.00;99336.84;4979497;28;20089;-81
2022/09/29 01:20:12;;;;;;;12.27;8.90;;;;;;;6.82;100.00;99333.13;4979812;28;20146;-80
2022/09/29 01:23:20;;;;;;;12.65;8.80;;;;;;;6.86;100.00;99337.00;4980982;28;20062;-82
2022/09/29 01:26:28;;;;;;;11.50;8.98;;;;;;;6.76;100.00;99325.97;4961536;29;20155;-82
2022/09/29 01:29:40;;;;;;;12.05;9.40;;;;;;;6.69;100.00;99338.00;4968709;28;20047;-81
2022/09/29 01:32:18;;;;;;;11.02;9.10;;;;;;;6.65;100.00;99344.47;4959839;28;20074;-82
2022/09/29 01:34:55;;;;;;;13.15;9.40;;;;;;;6.56;100.00;99341.09;4980493;28;20110;-82
2022/09/29 01:37:32;;;;;;;12.02;9.65;;;;;;;6.59;100.00;99353.78;4980030;28;20460;-83
2022/09/29 01:40:06;;;;;;;14.07;9.30;;;;;;;6.56;100.00;99355.88;4961417;29;20082;-83
2022/09/29 01:42:39;;;;;;;11.60;9.32;;;;;;;6.53;100.00;99358.78;4964013;28;20059;-82
2022/09/29 01:45:14;;;;;;;14.48;9.98;;;;;;;6.49;100.00;99354.88;4981674;28;20046;-82
2022/09/29 01:47:45;;;;;;;13.18;9.82;;;;;;;6.43;100.00;99358.13;4982861;28;20057;-82
2022/09/29 01:50:16;;;;;;;10.27;9.17;;;;;;;6.35;100.00;99350.31;4982585;28;20047;-82
2022/09/29 01:52:46;;;;;;;11.57;9.18;;;;;;;6.34;100.00;99357.28;4984735;28;20038;-80
2022/09/29 01:55:17;;;;;;;12.52;9.32;;;;;;;6.32;100.00;99362.66;4993911;28;20062;-81
2022/09/29 01:57:48;;;;;;;11.23;10.02;;;;;;;6.32;100.00;99373.03;4994614;28;20050;-81
2022/09/29 02:00:18;;;;;;;11.57;9.48;;;;;;;6.41;100.00;99370.47;4990399;28;20054;-80
2022/09/29 02:02:51;;;;;;;13.82;10.15;;;;;;;6.45;100.00;99377.78;4962147;28;20090;-81
2022/09/29 02:05:19;;;;;;;;;;;;;;;6.44;100.00;99370.97;4966459;29;20086;-81
2022/09/29 02:07:47;;;;;;;13.13;9.75;;;;;;;6.39;100.00;99359.41;4968662;29;19949;-80
2022/09/29 02:10:21;;;;;;;13.20;9.73;;;;;;;6.37;100.00;99363.97;4969725;29;20082;-81
2022/09/29 02:12:52;;;;;;;11.95;9.98;;;;;;;6.39;100.00;99362.81;4984764;28;20071;-81
2022/09/29 02:15:25;;;;;;;12.38;10.15;;;;;;;6.41;100.00;99365.25;4981930;28;20105;-82
2022/09/29 02:17:57;;;;;;;12.57;10.00;;;;;;;6.36;100.00;99354.53;4983330;28;20050;-81
2022/09/29 02:20:25;;;;;;;14.47;10.40;;;;;;;6.29;100.00;99351.75;4983868;28;20070;-81
2022/09/29 02:22:52;;;;;;;16.25;11.02;;;;;;;6.26;100.00;99360.69;4984544;28;20055;-81
2022/09/29 02:25:20;;;;;;;12.68;10.35;;;;;;;6.24;100.00;99359.22;4984083;28;20515;-81
2022/09/29 02:27:49;;;;;;;11.88;9.38;;;;;;;6.17;100.00;99361.63;4983685;28;20498;-81
2022/09/29 02:30:16;;;;;;;16.20;9.80;;;;;;;6.17;100.00;99353.84;4984523;28;20046;-81
2022/09/29 02:32:42;;;;;;;13.27;10.57;;;;;;;6.10;100.00;99355.47;4964982;28;20086;-81
2022/09/29 02:35:15;;;;;;;13.32;10.57;;;;;;;6.15;100.00;99355.78;4965612;29;20062;-81
2022/09/29 02:37:53;;;;;;;14.32;10.35;;;;;;;6.15;100.00;99363.56;4964882;29;20500;-81
2022/09/29 02:40:30;;;;;;;17.02;10.55;;;;;;;6.13;100.00;99362.94;4980734;28;20162;-81
2022/09/29 02:43:12;;;;;;;14.45;10.27;;;;;;;6.10;100.00;99360.66;4984179;28;20138;-82
2022/09/29 02:45:49;;;;;;;12.75;9.70;;;;;;;6.04;100.00;99357.88;4984484;28;20516;-80
2022/09/29 02:48:30;;;;;;;12.82;10.77;;;;;;;5.99;100.00;99355.75;4983429;28;20126;-80
2022/09/29 02:51:12;;;;;;;12.02;10.82;;;;;;;5.98;100.00;99359.31;4988090;28;20051;-79
2022/09/29 02:53:59;;;;;;;15.20;10.40;;;;;;;5.96;100.00;99358.66;4981201;28;20248;-79
2022/09/29 02:56:35;;;;;;;14.27;10.85;;;;;;;5.89;100.00;99345.50;4976229;28;20130;-79
2022/09/29 02:59:07;;;;;;;12.93;10.48;;;;;;;5.88;100.00;99356.00;4976608;28;20058;-82
2022/09/29 03:01:34;;;;;;;13.85;10.65;;;;;;;5.89;100.00;99366.25;4979876;28;20078;-80
2022/09/29 03:04:01;;;;;;;12.60;10.57;;;;;;;5.83;100.00;99368.63;4983296;28;20133;-80
2022/09/29 03:06:29;;;;;;;11.63;10.43;;;;;;;5.83;100.00;99366.03;4982174;28;20130;-80
2022/09/29 03:08:56;;;;;;;12.73;10.30;;;;;;;5.72;100.00;99364.53;4982591;28;20106;-79
2022/09/29 03:11:22;;;;;;;14.48;10.07;;;;;;;5.66;100.00;99373.78;4981301;28;20629;-80
2022/09/29 03:13:49;;;;;;;12.15;10.32;;;;;;;5.67;100.00;99380.56;4982970;28;20062;-81
2022/09/29 03:16:15;;;;;;;12.25;10.95;;;;;;;5.64;100.00;99373.13;4977723;28;20471;-82
2022/09/29 03:18:42;;;;;;;17.35;11.02;;;;;;;5.62;100.00;99380.25;4978048;28;20074;-81
2022/09/29 03:21:09;;;;;;;14.73;11.18;;;;;;;5.58;100.00;99378.94;4981738;28;20118;-80
2022/09/29 03:23:37;;;;;;;13.57;11.32;;;;;;;5.63;100.00;99379.28;4979078;28;20187;-81
2022/09/29 03:26:04;;;;;;;15.38;12.02;;;;;;;5.57;100.00;99381.69;4983895;28;20082;-80
2022/09/29 03:28:30;;;;;;;15.25;11.70;;;;;;;5.55;100.00;99374.03;4990873;28;20083;-82
2022/09/29 03:31:04;;;;;;;16.20;11.45;;;;;;;5.51;100.00;99383.09;4991988;28;20065;-81
2022/09/29 03:33:31;;;;;;;15.60;11.40;;;;;;;5.45;100.00;99373.34;4992026;28;20089;-80
2022/09/29 03:35:58;;;;;;;16.83;11.45;;;;;;;5.43;100.00;99383.06;4992531;28;20050;-80
2022/09/29 03:38:25;;;;;;;14.30;11.43;;;;;;;5.42;100.00;99385.78;4991913;28;20070;-80
2022/09/29 03:40:53;;;;;;;20.27;12.30;;;;;;;5.38;100.00;99393.06;4992054;28;20081;-81
2022/09/29 03:43:19;;;;;;;14.23;11.93;;;;;;;5.36;100.00;99384.63;4991786;28;20051;-81
2022/09/29 03:45:49;;;;;;;15.18;12.43;;;;;;;5.39;100.00;99384.31;4983407;28;20035;-80
2022/09/29 03:48:16;;;;;;;15.48;11.65;;;;;;;5.42;100.00;99388.38;4981626;28;20055;-80
2022/09/29 03:50:44;;;;;;;15.45;12.10;;;;;;;5.38;100.00;99381.88;4982722;28;20110;-81
2022/09/29 03:53:11;;;;;;;19.02;12.77;;;;;;;5.54;100.00;99397.56;4982360;28;20050;-82
2022/09/29 03:55:38;;;;;;;18.52;12.20;;;;;;;5.59;100.00;99387.53;4982879;28;20043;-80
2022/09/29 03:58:06;;;;;;;15.27;12.98;;;;;;;5.57;100.00;99389.47;4982111;28;20126;-81
2022/09/29 04:00:33;;;;;;;18.20;12.60;;;;;;;5.52;100.00;99387.31;4978940;28;20063;-81
2022/09/29 04:02:59;;;;;;;17.98;12.63;;;;;;;5.56;100.00;99399.03;4979294;28;20046;-81
2022/09/29 04:05:27;;;;;;;15.48;12.88;;;;;;;5.45;100.00;99388.91;4979360;28;20046;-80
2022/09/29 04:07:54;;;;;;;19.30;12.80;;;;;;;5.45;100.00;99399.28;4980973;28;20540;-81
2022/09/29 04:10:21;;;;;;;21.88;13.52;;;;;;;5.48;100.00;99393.78;4981409;28;20102;-81
2022/09/29 04:12:48;;;;;;;18.80;13.65;;;;;;;5.45;100.00;99398.47;4980381;28;20110;-81
2022/09/29 04:15:16;;;;;;;16.70;12.93;;;;;;;5.46;100.00;99400.91;4979023;28;20086;-80
2022/09/29 04:17:42;;;;;;;20.30;13.75;;;;;;;5.52;100.00;99400.28;4973108;28;20047;-82
2022/09/29 04:20:09;;;;;;;17.35;14.63;;;;;;;5.39;100.00;99407.66;4980385;28;20051;-81
2022/09/29 04:22:36;;;;;;;19.80;13.73;;;;;;;5.38;100.00;99406.03;4983316;28;20443;-81
2022/09/29 04:25:03;;;;;;;20.10;12.90;;;;;;;5.31;100.00;99408.44;4983949;28;20058;-80
2022/09/29 04:27:29;;;;;;;19.10;14.60;;;;;;;5.31;100.00;99411.03;4984699;28;20083;-81
2022/09/29 04:29:56;;;;;;;19.90;13.90;;;;;;;5.30;100.00;99417.16;4983286;28;20112;-82
2022/09/29 04:32:24;;;;;;;21.17;13.77;;;;;;;5.23;100.00;99410.13;4981362;28;20074;-78
2022/09/29 04:34:51;;;;;;;18.92;14.13;;;;;;;5.22;100.00;99409.31;4981777;28;20059;-78
2022/09/29 04:37:18;;;;;;;18.80;13.18;;;;;;;5.25;100.00;99416.00;4980580;28;20082;-79
2022/09/29 04:39:44;;;;;;;18.70;13.30;;;;;;;5.26;100.00;99415.03;4987126;28;20123;-80
2022/09/29 04:42:11;;;;;;;22.50;14.88;;;;;;;5.19;100.00;99416.63;4993800;28;20050;-80
2022/09/29 04:44:37;;;;;;;22.10;13.70;;;;;;;5.24;100.00;99432.53;4982989;23;20139;-82
2022/09/29 04:47:04;;;;;;;20.98;15.50;;;;;;;5.20;100.00;99420.84;4962019;28;20061;-81
2022/09/29 04:49:32;;;;;;;22.55;14.63;;;;;;;5.15;100.00;99423.06;4961984;29;20459;-82
2022/09/29 04:51:59;;;;;;;26.92;15.40;;;;;;;5.13;100.00;99422.41;4962135;29;20051;-81
2022/09/29 04:54:25;;;;;;;21.75;14.52;;;;;;;5.08;100.00;99422.84;4961528;29;20135;-82
2022/09/29 04:56:52;;;;;;;23.48;15.43;;;;;;;5.03;100.00;99429.47;4961922;28;20103;-81
2022/09/29 04:59:19;;;;;;;24.10;15.43;;;;;;;5.10;100.00;99431.31;4963204;29;20110;-83
2022/09/29 05:01:45;;;;;;;22.15;15.23;;;;;;;5.06;100.00;99429.16;4964706;28;20138;-83
2022/09/29 05:04:12;;;;;;;24.45;16.67;;;;;;;5.09;100.00;99439.22;4966856;28;20580;-83
2022/09/29 05:06:40;;;;;;;25.85;15.45;;;;;;;5.08;100.00;99445.38;4965843;28;20047;-80
2022/09/29 05:09:07;;;;;;;41.45;17.48;;;;;;;5.08;100.00;99445.38;4961544;29;20054;-81
2022/09/29 05:11:34;;;;;;;54.53;17.85;;;;;;;5.08;100.00;99442.78;4962972;29;20075;-80
2022/09/29 05:14:01;;;;;;;59.08;17.33;;;;;;;5.14;100.00;99452.56;4962007;29;20094;-81
2022/09/29 05:16:28;;;;;;;73.22;17.73;;;;;;;5.10;100.00;99446.03;4961681;28;20130;-82
2022/09/29 05:18:55;;;;;;;64.70;19.00;;;;;;;5.03;100.00;99447.59;4962979;29;20106;-81
2022/09/29 05:21:21;;;;;;;77.45;18.17;;;;;;;4.99;100.00;99455.69;4963619;29;20055;-81
2022/09/29 05:23:49;;;;;;;48.50;18.27;;;;;;;5.03;100.00;99451.00;4965121;28;20074;-79
2022/09/29 05:26:16;;;;;;;39.88;19.25;;;;;;;4.97;100.00;99454.19;4966163;29;20119;-80
2022/09/29 05:28:44;;;;;;;36.97;18.90;;;;;;;4.96;100.00;99460.34;4964390;29;20050;-80
2022/09/29 05:31:12;;;;;;;30.58;18.67;;;;;;;4.98;100.00;99461.00;4968676;28;20070;-81
2022/09/29 05:33:38;;;;;;;34.22;19.95;;;;;;;4.91;100.00;99447.81;4964243;29;20047;-81
2022/09/29 05:36:09;;;;;;;38.17;19.80;;;;;;;4.89;100.00;99447.16;4964014;28;20106;-79
2022/09/29 05:38:37;;;;;;;33.58;20.30;;;;;;;4.92;100.00;99454.63;4962781;29;20047;-81
2022/09/29 05:41:06;;;;;;;29.85;19.48;;;;;;;4.89;100.00;99460.13;4963940;28;20094;-81
2022/09/29 05:43:32;;;;;;;32.55;19.30;;;;;;;4.92;100.00;99462.41;4963400;28;20078;-81
2022/09/29 05:46:00;;;;;;;31.40;18.83;;;;;;;4.93;100.00;99456.25;4963200;28;20079;-81
2022/09/29 05:48:29;;;;;;;33.65;19.38;;;;;;;4.90;100.00;99456.56;4963941;28;20055;-81
2022/09/29 05:50:56;;;;;;;35.08;19.65;;;;;;;4.96;100.00;99466.34;4967189;28;20078;-81
2022/09/29 05:53:23;;;;;;;36.22;20.30;;;;;;;4.98;100.00;99469.59;4964036;28;20130;-83
2022/09/29 05:55:50;;;;;;;36.88;19.13;;;;;;;4.95;100.00;99467.31;4965847;29;20075;-80
2022/09/29 05:58:18;;;;;;;36.30;19.98;;;;;;;4.95;100.00;99469.91;4963093;29;20086;-83
2022/09/29 06:00:45;;;;;;;30.48;19.48;;;;;;;4.95;100.00;99467.31;4962430;28;20250;-81
2022/09/29 06:03:11;;;;;;;31.85;18.05;;;;;;;5.04;100.00;99473.38;4962831;28;20134;-80
2022/09/29 06:05:39;;;;;;;31.90;18.42;;;;;;;5.05;100.00;99474.19;4959034;28;20162;-80
2022/09/29 06:08:06;;;;;;;32.22;18.95;;;;;;;5.11;100.00;99481.38;4959384;29;20081;-82
2022/09/29 06:10:33;;;;;;;33.00;19.67;;;;;;;5.14;100.00;99478.50;4963898;28;20078;-83
2022/09/29 06:13:02;;;;;;;28.73;18.55;;;;;;;5.23;100.00;99490.53;4965517;28;20084;-82
2022/09/29 06:15:30;;;;;;;31.67;19.17;;;;;;;5.27;100.00;99481.50;4961813;28;20055;-84
2022/09/29 06:17:57;;;;;;;28.23;18.10;;;;;;;5.44;100.00;99488.44;4963705;29;20106;-81
2022/09/29 06:20:24;;;;;;;34.83;17.70;;;;;;;5.55;100.00;99488.22;4960964;29;20134;-82
2022/09/29 06:22:53;;;;;;;30.17;19.17;;;;;;;6.07;100.00;99487.41;4962187;29;20091;-82
2022/09/29 06:25:20;;;;;;;27.50;17.23;;;;;;;6.69;100.00;99487.94;4966377;28;20114;-82
2022/09/29 06:27:47;;;;;;;29.40;17.02;;;;;;;6.88;100.00;99488.50;4968556;29;20112;-82
2022/09/29 06:30:14;;;;;;;24.83;15.93;;;;;;;7.42;100.00;99481.03;4965264;28;20059;-83
2022/09/29 06:32:42;;;;;;;23.15;14.93;;;;;;;7.99;100.00;99481.75;4966300;29;20118;-83
2022/09/29 06:37:55;;;;;;;17.60;12.10;;;;;;;8.99;100.00;99474.09;4968225;28;20426;-82
2022/09/29 06:40:22;;;;;;;17.70;10.55;;;;;;;8.89;100.00;99471.75;4968061;29;20070;-83
2022/09/29 06:42:48;;;;;;;17.83;10.27;;;;;;;9.19;98.33;99483.09;4968241;28;20070;-83
2022/09/29 06:45:15;;;;;;;18.80;10.77;;;;;;;9.08;97.35;99480.06;4966938;29;20451;-84
2022/09/29 06:47:43;;;;;;;18.13;10.57;;;;;;;9.72;94.99;99477.91;4969518;29;20067;-84
2022/09/29 06:50:10;;;;;;;14.45;10.20;;;;;;;9.55;93.06;99483.28;4968870;28;20066;-84
2022/09/29 06:52:37;;;;;;;15.45;11.23;;;;;;;8.97;94.37;99479.50;4969591;29;20055;-82
2022/09/29 06:55:07;;;;;;;17.35;10.75;;;;;;;8.79;96.00;99478.97;4966526;28;20054;-83
2022/09/29 06:57:33;;;;;;;16.50;10.52;;;;;;;9.34;94.71;99485.75;4967037;29;20035;-84
2022/09/29 07:00:00;;;;;;;16.10;10.32;;;;;;;9.41;93.72;99488.47;4968280;28;20051;-81
2022/09/29 07:02:27;;;;;;;16.88;10.90;;;;;;;9.22;93.68;99481.94;4977681;28;20043;-82
2022/09/29 07:04:55;;;;;;;17.88;11.50;;;;;;;9.67;93.07;99490.69;4975602;28;20106;-83
2022/09/29 07:07:22;;;;;;;20.25;10.80;;;;;;;9.44;93.88;99488.94;4972107;28;20051;-84
2022/09/29 07:09:49;;;;;;;17.50;11.07;;;;;;;9.27;93.94;99482.22;4971430;28;20055;-85
2022/09/29 07:12:16;;;;;;;17.23;11.93;;;;;;;9.56;93.57;99490.13;4971899;28;20083;-84
2022/09/29 07:14:50;;;;;;;20.40;12.40;;;;;;;9.48;94.04;99489.38;4978548;28;20047;-82
2022/09/29 07:17:17;;;;;;;20.30;12.40;;;;;;;8.94;95.92;99489.47;4976975;28;20062;-83
2022/09/29 07:19:44;;;;;;;22.25;14.15;;;;;;;8.57;98.09;99482.34;4981694;28;20050;-83
2022/09/29 07:22:12;;;;;;;28.40;15.43;;;;;;;8.18;99.52;99497.97;4988466;28;20269;-83
2022/09/29 07:24:38;;;;;;;32.53;16.90;;;;;;;7.83;100.00;99473.16;4989952;28;20050;-83
2022/09/29 07:27:06;;;;;;;26.45;16.70;;;;;;;7.90;100.00;99485.34;4985135;28;20054;-83
2022/09/29 07:29:35;;;;;;;28.63;18.05;;;;;;;7.86;100.00;99498.88;4970525;29;20110;-84
2022/09/29 07:32:03;;;;;;;42.22;18.35;;;;;;;7.71;100.00;99497.91;4972029;28;20134;-85
2022/09/29 07:34:36;;;;;;;29.67;17.05;;;;;;;7.82;100.00;99502.78;4972035;28;20071;-86
2022/09/29 07:37:13;;;;;;;27.35;17.20;;;;;;;7.88;100.00;99481.28;4971749;28;20055;-83
2022/09/29 07:39:44;;;;;;;30.88;18.73;;;;;;;8.28;100.00;99499.41;4971783;28;20066;-85
2022/09/29 07:42:18;;;;;;;28.15;17.80;;;;;;;8.30;100.00;99496.63;4972478;28;20055;-85
2022/09/29 07:44:57;;;;;;;24.92;17.40;;;;;;;8.59;100.00;99507.25;4972684;28;20051;-83
2022/09/29 07:47:32;;;;;;;25.33;17.33;;;;;;;9.11;99.90;99519.69;4973085;28;20055;-85
2022/09/29 07:50:04;;;;;;;26.77;18.05;;;;;;;8.94;99.16;99510.34;4972009;28;20063;-84
2022/09/29 07:52:30;;;;;;;28.17;17.73;;;;;;;9.39;98.66;99499.09;4972967;28;20119;-86
2022/09/29 07:55:06;;;;;;;28.90;17.63;;;;;;;9.48;96.52;99511.06;4968334;28;20062;-86
2022/09/29 07:57:48;;;;;;;24.23;17.40;;;;;;;9.60;96.42;99507.06;4972293;28;20062;-85
2022/09/29 08:00:22;;;;;;;28.70;16.90;;;;;;;9.49;96.23;99499.63;4972555;28;20082;-84
2022/09/29 08:02:49;;;;;;;27.17;16.40;;;;;;;9.48;95.35;99508.47;4952043;29;20119;-85
2022/09/29 08:05:22;;;;;;;27.63;16.70;;;;;;;9.81;95.04;99519.44;4950165;29;20058;-85
2022/09/29 08:07:52;;;;;;;25.38;17.38;;;;;;;10.50;92.74;99525.25;4951807;29;20052;-81
2022/09/29 08:10:21;;;;;;;24.35;17.40;;;;;;;10.40;91.61;99526.53;4962212;28;20052;-85
2022/09/29 08:12:51;;;;;;;26.23;17.65;;;;;;;10.56;92.49;99532.34;4970026;28;20062;-85
2022/09/29 08:15:25;;;;;;;22.67;16.50;;;;;;;10.39;91.42;99530.16;4970292;28;20118;-84
2022/09/29 08:18:09;;;;;;;24.17;17.15;;;;;;;10.50;92.47;99514.78;4970090;28;20071;-82
2022/09/29 08:20:36;;;;;;;20.90;17.02;;;;;;;10.58;92.18;99535.59;4932820;29;20051;-85
2022/09/29 08:23:10;;;;;;;26.40;17.88;;;;;;;10.21;93.50;99513.00;4951530;29;20120;-83
2022/09/29 08:25:42;;;;;;;24.73;17.95;;;;;;;10.57;92.31;99535.78;4967411;28;20047;-86
2022/09/29 08:28:18;;;;;;;26.80;17.15;;;;;;;11.25;90.51;99514.41;4968990;28;20071;-85
2022/09/29 08:30:45;;;;;;;24.42;17.30;;;;;;;11.30;90.27;99522.50;4970498;28;20047;-86
2022/09/29 08:33:13;;;;;;;22.20;16.85;;;;;;;11.21;91.33;99543.75;4970587;28;20047;-85
2022/09/29 08:35:41;;;;;;;24.05;16.83;;;;;;;10.98;90.00;99530.81;4968435;28;20055;-85
2022/09/29 08:38:07;;;;;;;26.42;18.10;;;;;;;11.36;91.62;99541.06;4950608;29;20063;-83
2022/09/29 08:40:38;;;;;;;26.60;18.13;;;;;;;10.86;91.76;99525.28;4951574;29;20055;-83
2022/09/29 08:43:17;;;;;;;24.92;18.17;;;;;;;11.35;90.22;99539.44;4950516;29;20130;-83
2022/09/29 08:45:59;;;;;;;25.40;18.13;;;;;;;11.01;91.33;99558.44;4950990;29;20518;-83
2022/09/29 08:48:31;;;;;;;27.85;19.02;;;;;;;10.49;93.06;99528.03;4961383;29;20043;-84
2022/09/29 08:51:00;;;;;;;25.58;18.73;;;;;;;10.23;94.69;99547.63;4969879;28;20059;-83
2022/09/29 08:53:32;;;;;;;29.40;19.48;;;;;;;10.41;95.49;99557.72;4970352;28;20107;-81
2022/09/29 08:56:05;;;;;;;26.75;18.73;;;;;;;10.87;94.21;99542.56;4969851;28;20054;-83
2022/09/29 08:58:38;;;;;;;27.77;18.15;;;;;;;11.21;93.86;99549.00;4969286;28;20071;-83
2022/09/29 09:01:23;;;;;;;25.75;18.52;;;;;;;11.02;92.92;99549.59;4969297;28;20055;-85
2022/09/29 09:04:12;;;;;;;30.02;18.17;;;;;;;11.45;92.38;99559.09;4970696;28;20061;-84
2022/09/29 09:06:57;;;;;;;24.98;17.98;;;;;;;11.11;91.70;99559.75;4970380;28;20055;-84
2022/09/29 09:09:57;;;;;;;26.65;17.33;;;;;;;11.26;91.95;99562.34;4968817;28;20054;-83
2022/09/29 09:12:47;;;;;;;23.88;17.98;;;;;;;11.10;93.79;99557.34;4960133;29;20457;-84
2022/09/29 09:15:26;;;;;;;26.83;18.45;;;;;;;10.78;92.77;99555.97;4960998;29;20090;-82
2022/09/29 09:18:18;;;;;;;22.65;17.20;;;;;;;11.00;93.97;99554.19;4959559;29;20138;-82
2022/09/29 09:20:52;;;;;;;30.38;18.73;;;;;;;11.12;92.28;99561.38;4958010;29;20059;-80
2022/09/29 09:23:22;;;;;;;26.77;17.33;;;;;;;11.60;91.58;99565.06;4957723;28;20138;-81
2022/09/29 09:25:53;;;;;;;26.98;18.48;;;;;;;11.36;91.91;99554.97;4958296;29;20057;-81
2022/09/29 09:28:27;;;;;;;27.33;17.90;;;;;;;11.46;92.07;99571.19;4957198;28;20138;-81
2022/09/29 09:30:58;;;;;;;27.67;18.60;;;;;;;11.49;91.86;99559.53;4957916;28;20053;-82
2022/09/29 09:33:31;;;;;;;24.48;17.80;;;;;;;11.37;91.23;99561.00;4958324;28;20086;-81
2022/09/29 09:36:02;;;;;;;24.85;17.95;;;;;;;11.43;92.56;99568.94;4958821;28;20047;-79
2022/09/29 09:38:41;;;;;;;25.50;18.85;;;;;;;11.66;92.04;99566.13;4958195;29;20500;-80
2022/09/29 09:41:09;;;;;;;29.80;19.05;;;;;;;11.60;91.24;99559.84;4960549;29;20047;-79
2022/09/29 09:43:41;;;;;;;29.20;19.23;;;;;;;12.01;90.33;99567.03;4960415;28;20146;-81
2022/09/29 09:46:17;;;;;;;28.20;18.90;;;;;;;12.12;88.79;99571.75;4959218;29;20118;-82
2022/09/29 09:48:49;;;;;;;30.92;19.63;;;;;;;12.40;88.63;99573.53;4959457;29;20134;-80
2022/09/29 09:51:33;;;;;;;25.13;18.02;;;;;;;12.37;87.76;99566.84;4959526;28;20142;-81
2022/09/29 09:54:05;;;;;;;27.08;18.33;;;;;;;12.81;87.44;99569.06;4959274;28;20607;-80
2022/09/29 09:56:50;;;;;;;26.90;18.13;;;;;;;12.19;85.89;99564.75;4958422;28;20480;-83
2022/09/29 09:59:31;;;;;;;28.17;17.77;;;;;;;12.22;86.36;99559.13;4958309;29;20134;-81
2022/09/29 10:01:59;;;;;;;28.50;17.55;;;;;;;12.62;86.40;99562.75;4958687;29;20105;-82
2022/09/29 10:04:26;;;;;;;26.52;16.85;;;;;;;12.81;84.33;99558.56;4958699;28;20155;-82
2022/09/29 10:06:53;;;;;;;24.58;16.88;;;;;;;12.68;85.95;99553.28;4957775;29;20142;-80
2022/09/29 10:09:20;;;;;;;22.50;16.70;;;;;;;12.73;84.10;99553.53;4957851;29;20130;-82
2022/09/29 10:11:46;;;;;;;25.15;16.08;;;;;;;12.77;83.87;99562.59;4957634;29;20126;-82
2022/09/29 10:14:19;;;;;;;25.02;16.88;;;;;;;12.81;83.78;99563.00;4958746;28;20134;-82
2022/09/29 10:16:48;;;;;;;25.70;15.63;;;;;;;12.75;83.02;99558.56;4957457;29;20087;-79
2022/09/29 10:19:21;;;;;;;24.67;14.85;;;;;;;13.16;80.69;99561.16;4955950;29;20434;-80
2022/09/29 10:21:48;;;;;;;21.73;15.82;;;;;;;12.93;80.68;99562.25;4956440;28;20051;-80
2022/09/29 10:24:24;;;;;;;20.10;14.93;;;;;;;13.05;80.68;99569.56;4956889;28;20494;-79
2022/09/29 10:26:54;;;;;;;29.42;16.02;;;;;;;12.99;79.78;99559.84;4957577;28;20143;-76
2022/09/29 10:29:25;;;;;;;22.25;15.60;;;;;;;13.40;79.99;99565.84;4956330;28;20447;-80
2022/09/29 10:32:01;;;;;;;23.60;16.67;;;;;;;13.16;79.76;99561.16;4956365;29;20102;-79
2022/09/29 10:34:32;;;;;;;21.77;16.38;;;;;;;13.32;79.99;99570.47;4958493;28;20138;-79
2022/09/29 10:37:01;;;;;;;22.92;16.13;;;;;;;13.51;79.95;99562.63;4961602;29;20086;-82
2022/09/29 10:39:33;;;;;;;24.73;17.00;;;;;;;13.52;79.35;99580.00;4961604;29;20483;-81
2022/09/29 10:41:59;;;;;;;26.52;16.27;;;;;;;13.56;78.72;99578.59;4962304;28;20119;-79
2022/09/29 10:44:31;;;;;;;22.10;16.13;;;;;;;13.68;78.25;99570.94;4987433;23;20114;-81
2022/09/29 10:46:59;;;;;;;24.02;15.20;;;;;;;13.80;77.36;99569.28;4984093;28;20093;-81
2022/09/29 10:49:28;;;;;;;24.25;15.82;;;;;;;14.14;77.86;99578.78;4983390;28;20046;-81
2022/09/29 10:52:03;;;;;;;21.95;15.10;;;;;;;14.06;76.53;99568.47;4983782;28;20051;-81
2022/09/29 10:54:33;;;;;;;21.48;16.83;;;;;;;14.18;75.05;99581.78;4983635;28;20153;-81
2022/09/29 10:57:11;;;;;;;26.45;15.80;;;;;;;14.31;76.44;99576.53;4984061;28;20138;-80
2022/09/29 10:59:46;;;;;;;20.83;15.40;;;;;;;14.41;74.42;99582.19;4983454;28;20059;-81
2022/09/29 11:02:21;;;;;;;18.77;13.93;;;;;;;14.49;73.78;99578.53;4982357;28;20109;-81
2022/09/29 11:04:49;;;;;;;25.10;16.65;;;;;;;13.67;75.09;99574.56;4981556;28;20138;-81
2022/09/29 11:07:17;;;;;;;24.38;16.13;;;;;;;13.66;75.69;99572.13;4981463;28;20078;-81
2022/09/29 11:09:44;;;;;;;23.02;16.02;;;;;;;13.66;77.43;99572.94;4979606;28;20082;-80
2022/09/29 11:12:33;;;;;;;22.05;15.02;;;;;;;13.36;76.56;99574.31;4980963;28;20130;-80
2022/09/29 11:15:01;;;;;;;23.90;15.18;;;;;;;13.95;77.19;99567.28;4980489;28;20191;-81
2022/09/29 11:17:38;;;;;;;23.75;15.38;;;;;;;14.47;75.47;99591.09;4984953;28;20070;-81
2022/09/29 11:20:11;;;;;;;19.40;13.25;;;;;;;13.94;72.94;99573.53;4983598;28;20085;-80
2022/09/29 11:22:56;;;;;;;19.55;12.90;;;;;;;14.33;74.21;99592.09;4986346;28;20540;-81
2022/09/29 11:25:37;;;;;;;19.80;11.57;;;;;;;14.80;73.23;99590.97;4983728;28;20082;-81
2022/09/29 11:28:24;;;;;;;17.65;11.93;;;;;;;15.05;70.78;99593.72;4983767;28;20076;-80
2022/09/29 11:31:08;;;;;;;18.77;10.73;;;;;;;14.84;69.98;99586.91;4981755;28;20058;-80
2022/09/29 11:33:46;;;;;;;19.15;11.48;;;;;;;14.71;71.55;99587.78;4984748;28;20059;-81
2022/09/29 11:36:26;;;;;;;18.90;12.40;;;;;;;14.59;71.77;99585.00;4984198;28;20057;-80
2022/09/29 11:39:15;;;;;;;17.70;11.95;;;;;;;14.71;72.20;99593.03;4984018;28;20078;-80